createdAt,value
2022-12-22T00:01:11.968Z,66.99
2022-12-22T00:06:32.622Z,68.16
2022-12-22T00:11:54.860Z,67.62
2022-12-22T00:17:21.918Z,67.40
2022-12-22T00:22:44.442Z,67.64
2022-12-22T00:28:06.683Z,67.91
2022-12-22T00:33:31.927Z,67.66
2022-12-22T00:38:52.217Z,66.89
2022-12-22T00:44:14.272Z,67.09
2022-12-22T00:49:35.164Z,67.91
2022-12-22T00:54:56.308Z,67.99
2022-12-22T01:00:18.290Z,67.78
2022-12-22T01:05:39.449Z,67.06
2022-12-22T01:11:00.047Z,67.37
2022-12-22T01:16:22.368Z,67.80
2022-12-22T01:21:43.473Z,67.61
2022-12-22T01:27:04.113Z,67.46
2022-12-22T01:32:30.568Z,67.92
2022-12-22T01:37:50.948Z,67.72
2022-12-22T01:43:11.486Z,68.14
2022-12-22T01:48:34.662Z,68.22
2022-12-22T01:53:55.439Z,67.48
2022-12-22T01:59:21.315Z,67.73
2022-12-22T02:04:49.138Z,67.39
2022-12-22T02:10:24.026Z,67.86
2022-12-22T02:15:51.279Z,67.15
2022-12-22T02:21:19.534Z,67.22
2022-12-22T02:26:47.826Z,67.18
2022-12-22T02:32:08.674Z,67.01
2022-12-22T02:37:39.028Z,66.63
2022-12-22T02:43:09.004Z,68.33
2022-12-22T02:48:34.867Z,67.42
2022-12-22T02:53:58.185Z,67.17
2022-12-22T02:59:20.261Z,67.78
2022-12-22T03:04:41.044Z,67.84
2022-12-22T03:10:01.766Z,66.57
2022-12-22T03:15:24.955Z,67.74
2022-12-22T03:20:45.452Z,66.72
2022-12-22T03:25:53.030Z,66.74
2022-12-22T03:31:00.512Z,66.19
2022-12-22T03:36:04.455Z,66.79
2022-12-22T03:41:07.743Z,66.20
2022-12-22T03:46:32.700Z,67.43
2022-12-22T03:51:37.103Z,66.87
2022-12-22T03:56:40.547Z,66.64
2022-12-22T04:01:47.369Z,66.99
2022-12-22T04:06:51.205Z,66.15
2022-12-22T04:12:11.901Z,66.74
2022-12-22T04:17:16.601Z,66.62
2022-12-22T04:22:20.036Z,66.63
2022-12-22T04:27:23.517Z,66.29
2022-12-22T04:32:28.434Z,66.47
2022-12-22T04:37:31.560Z,65.41
2022-12-22T04:42:35.468Z,66.54
2022-12-22T04:47:40.626Z,67.03
2022-12-22T04:52:44.126Z,66.44
2022-12-22T04:57:47.575Z,66.25
2022-12-22T05:02:53.869Z,65.87
2022-12-22T05:07:57.327Z,66.73
2022-12-22T05:13:00.884Z,65.91
2022-12-22T05:18:06.063Z,66.18
2022-12-22T05:23:09.397Z,66.51
2022-12-22T05:28:12.936Z,66.33
2022-12-22T05:33:17.722Z,66.66
2022-12-22T05:38:21.194Z,66.32
2022-12-22T05:43:24.720Z,65.96
2022-12-22T05:48:35.297Z,66.27
2022-12-22T05:53:41.329Z,66.20
2022-12-22T05:58:44.828Z,66.42
2022-12-22T06:03:53.226Z,66.58
2022-12-22T06:08:59.672Z,66.29
2022-12-22T06:14:03.011Z,66.40
2022-12-22T06:19:08.320Z,65.71
2022-12-22T06:24:11.875Z,66.67
2022-12-22T06:29:15.384Z,66.11
2022-12-22T06:34:20.417Z,65.54
2022-12-22T06:39:24.078Z,65.93
2022-12-22T06:44:27.439Z,65.83
2022-12-22T06:49:32.314Z,65.22
2022-12-22T06:54:35.818Z,64.25
2022-12-22T06:59:39.288Z,64.99
2022-12-22T07:04:45.631Z,64.37
2022-12-22T07:09:49.199Z,65.15
2022-12-22T07:14:52.641Z,64.53
2022-12-22T07:19:57.376Z,64.10
2022-12-22T07:25:00.677Z,64.70
2022-12-22T07:30:04.041Z,65.03
2022-12-22T07:35:10.080Z,64.92
2022-12-22T07:40:13.851Z,65.18
2022-12-22T07:45:19.114Z,64.33
2022-12-22T07:50:28.199Z,64.59
2022-12-22T07:55:36.634Z,64.56
2022-12-22T08:00:39.975Z,64.95
2022-12-22T08:05:45.845Z,65.16
2022-12-22T08:10:49.179Z,65.02
2022-12-22T08:15:52.668Z,65.24
2022-12-22T08:20:57.612Z,64.94
2022-12-22T08:26:04.118Z,65.79
2022-12-22T08:31:08.785Z,65.44
2022-12-22T08:36:14.293Z,65.27
2022-12-22T08:41:39.514Z,65.37
2022-12-22T08:46:43.083Z,65.57
2022-12-22T08:51:48.567Z,65.18
2022-12-22T08:56:53.173Z,65.84
2022-12-22T09:01:56.768Z,65.46
2022-12-22T09:07:02.769Z,65.61
2022-12-22T09:12:06.779Z,64.62
2022-12-22T09:17:10.127Z,64.56
2022-12-22T09:22:15.001Z,65.05
2022-12-22T09:27:18.143Z,63.80
2022-12-22T09:32:21.735Z,64.54
2022-12-22T09:37:26.559Z,64.20
2022-12-22T09:42:35.321Z,63.73
2022-12-22T09:47:40.823Z,63.96
2022-12-22T09:52:50.291Z,63.97
2022-12-22T09:57:55.594Z,64.55
2022-12-22T10:03:06.426Z,64.01
2022-12-22T10:08:14.855Z,64.33
2022-12-22T10:13:19.847Z,64.25
2022-12-22T10:18:25.871Z,63.47
2022-12-22T10:23:32.019Z,63.70
2022-12-22T10:28:39.645Z,64.00
2022-12-22T10:33:47.380Z,63.98
2022-12-22T10:39:00.171Z,64.48
2022-12-22T10:44:07.857Z,63.85
2022-12-22T10:49:18.624Z,63.68
2022-12-22T10:54:32.239Z,64.58
2022-12-22T10:59:35.985Z,64.53
2022-12-22T11:04:39.320Z,64.09
2022-12-22T11:09:44.333Z,64.31
2022-12-22T11:14:56.319Z,64.40
2022-12-22T11:20:18.210Z,64.14
2022-12-22T11:25:33.131Z,64.25
2022-12-22T11:30:47.255Z,64.56
2022-12-22T11:35:59.052Z,64.55
2022-12-22T11:41:12.412Z,64.04
2022-12-22T11:46:25.288Z,64.57
2022-12-22T11:51:55.188Z,64.04
2022-12-22T11:57:07.985Z,65.00
2022-12-22T12:02:34.656Z,65.28
2022-12-22T12:07:42.058Z,65.08
2022-12-22T12:12:52.985Z,64.97
2022-12-22T12:18:17.077Z,64.99
2022-12-22T12:23:41.388Z,64.82
2022-12-22T12:28:53.815Z,64.68
2022-12-22T12:34:02.273Z,64.68
2022-12-22T12:39:14.854Z,64.69
2022-12-22T12:44:24.473Z,64.16
2022-12-22T12:49:56.773Z,64.69
2022-12-22T12:55:31.406Z,64.87
2022-12-22T13:00:52.553Z,63.60
2022-12-22T13:06:02.231Z,64.10
2022-12-22T13:12:10.468Z,63.71
2022-12-22T13:17:41.787Z,64.22
2022-12-22T13:22:45.765Z,63.68
2022-12-22T13:27:50.657Z,63.82
2022-12-22T13:32:55.458Z,64.12
2022-12-22T13:37:58.752Z,64.01
2022-12-22T13:43:06.160Z,64.33
2022-12-22T13:48:19.114Z,63.88
2022-12-22T13:54:07.769Z,64.03
2022-12-22T13:59:01.157Z,64.90
2022-12-22T14:04:07.958Z,65.17
2022-12-22T14:09:16.974Z,65.08
2022-12-22T14:14:23.546Z,64.21
2022-12-22T14:19:32.280Z,65.20
2022-12-22T14:24:43.370Z,64.83
2022-12-22T14:29:47.141Z,65.05
2022-12-22T14:34:55.559Z,63.76
2022-12-22T14:39:59.117Z,64.47
2022-12-22T14:45:02.852Z,64.44
2022-12-22T14:50:19.728Z,64.45
2022-12-22T14:55:27.487Z,64.41
2022-12-22T15:00:36.561Z,64.77
2022-12-22T15:05:44.717Z,65.54
2022-12-22T15:10:48.217Z,64.23
2022-12-22T15:15:53.538Z,64.52
2022-12-22T15:20:59.123Z,64.85
2022-12-22T15:26:02.463Z,64.42
2022-12-22T15:31:14.401Z,64.21
2022-12-22T15:36:19.300Z,64.54
2022-12-22T15:41:22.720Z,64.61
2022-12-22T15:46:26.269Z,65.57
2022-12-22T15:51:33.411Z,64.93
2022-12-22T15:56:37.530Z,64.12
2022-12-22T16:01:40.912Z,64.22
2022-12-22T16:06:46.450Z,64.08
2022-12-22T16:11:50.062Z,63.88
2022-12-22T16:16:53.539Z,63.79
2022-12-22T16:21:58.405Z,64.12
2022-12-22T16:27:01.684Z,63.47
2022-12-22T16:32:18.042Z,63.93
2022-12-22T16:37:23.389Z,64.33
2022-12-22T16:47:47.430Z,64.36
2022-12-22T16:52:52.282Z,65.14
2022-12-22T16:57:55.855Z,63.86
2022-12-22T17:03:04.323Z,64.25
2022-12-22T17:08:14.497Z,64.37
2022-12-22T17:13:19.144Z,64.65
2022-12-22T17:18:26.106Z,64.77
2022-12-22T17:23:35.133Z,65.21
2022-12-22T17:28:39.758Z,65.18
2022-12-22T17:33:43.132Z,64.59
2022-12-22T17:38:47.868Z,64.82
2022-12-22T17:43:51.304Z,64.35
2022-12-22T17:48:54.848Z,65.14
2022-12-22T17:54:00.676Z,65.07
2022-12-22T17:59:03.982Z,65.32
2022-12-22T18:04:09.965Z,65.80
2022-12-22T18:09:21.791Z,65.02
2022-12-22T18:14:25.200Z,64.77
2022-12-22T18:19:28.663Z,64.56
2022-12-22T18:24:33.627Z,65.04
2022-12-22T18:29:36.658Z,65.25
2022-12-22T18:34:40.962Z,65.31
2022-12-22T18:39:46.447Z,65.26
2022-12-22T18:44:50.259Z,65.72
2022-12-22T18:49:53.650Z,65.12
2022-12-22T18:54:58.588Z,66.29
2022-12-22T19:00:01.919Z,65.17
2022-12-22T19:05:14.777Z,66.37
2022-12-22T19:10:22.981Z,65.66
2022-12-22T19:15:30.128Z,66.68
2022-12-22T19:20:34.023Z,66.18
2022-12-22T19:25:38.924Z,65.24
2022-12-22T19:30:42.148Z,65.02
2022-12-22T19:35:45.666Z,65.43
2022-12-22T19:40:51.932Z,65.55
2022-12-22T19:45:55.932Z,65.22
2022-12-22T19:50:59.531Z,65.91
2022-12-22T19:56:04.635Z,66.18
2022-12-22T20:01:11.752Z,66.53
2022-12-22T20:06:15.284Z,66.72
2022-12-22T20:11:21.311Z,66.78
2022-12-22T20:16:25.249Z,67.12
2022-12-22T20:21:31.121Z,66.64
2022-12-22T20:26:36.136Z,66.37
2022-12-22T20:31:39.336Z,66.80
2022-12-22T20:36:44.404Z,65.79
2022-12-22T20:41:53.406Z,66.05
2022-12-22T20:46:56.981Z,66.96
2022-12-22T20:52:00.275Z,66.34
2022-12-22T20:57:05.293Z,65.77
2022-12-22T21:02:22.384Z,66.50
2022-12-22T21:07:25.945Z,66.38
2022-12-22T21:12:30.657Z,66.38
2022-12-22T21:17:34.227Z,66.76
2022-12-22T21:22:37.744Z,66.95
2022-12-22T21:27:45.098Z,67.26
2022-12-22T21:32:48.875Z,67.17
2022-12-22T21:37:53.943Z,66.70
2022-12-22T21:42:59.073Z,66.57
2022-12-22T21:48:02.363Z,67.34
2022-12-22T21:53:05.764Z,66.63
2022-12-22T21:58:15.275Z,66.88
2022-12-22T22:03:18.914Z,66.45
2022-12-22T22:08:22.272Z,66.72
2022-12-22T22:13:27.124Z,67.44
2022-12-22T22:18:30.710Z,66.79
2022-12-22T22:23:34.025Z,67.28
2022-12-22T22:28:38.855Z,67.65
2022-12-22T22:33:42.319Z,67.08
2022-12-22T22:38:45.697Z,67.03
2022-12-22T22:43:50.524Z,67.79
2022-12-22T22:48:53.862Z,66.79
2022-12-22T22:53:57.310Z,67.64
2022-12-22T22:59:02.034Z,66.89
2022-12-22T23:04:05.828Z,67.26
2022-12-22T23:09:09.593Z,67.81
2022-12-22T23:14:14.583Z,67.49
2022-12-22T23:19:18.165Z,67.21
2022-12-22T23:24:21.550Z,67.25
2022-12-22T23:29:26.472Z,67.61
2022-12-22T23:34:29.657Z,66.83
2022-12-22T23:39:33.057Z,67.94
2022-12-22T23:44:37.783Z,67.50
2022-12-22T23:49:41.184Z,66.95
2022-12-22T23:54:44.610Z,67.05
2022-12-22T23:59:49.480Z,66.95
